Elgin, Oklahoma
Current Conditions -  °F | °C
As of 4:13 AM on Saturday 20 Dec 2014 (Local Time) from KFSI Reporting Station
Overcast Overcast  
Wind Chill: 41°   Ceiling: 1900
Heat Index: 41°   Visibility: 10mi
Dew Point: 39°   Wind: 2mph
Humidity: 93%   Direction: 210°SSW
Pressure: 30.2"   Gusts: NA
Location:  34.78°N, 98.29°W
Report Text: KFSI 201013Z AUTO 21002KT 10SM OVC019 05/04 A3020 RMK AO2
Loading
Personal Weather Stations






























Interactive Weather Map New forecast layout! Learn more

10-Day Weather Forecast

Advertisements
Track Severe Weather on mobile